TimeCDT,TemperatureF,Dew PointF,Humidity,Sea Level PressureIn,VisibilityMPH,Wind Direction,Wind SpeedMPH,Gust SpeedMPH,PrecipitationIn,Events,Conditions,WindDirDegrees,DateUTC
12:53 AM,55.9,46.0,69,30.12,10.0,South,5.8,-,N/A,,Mostly Cloudy,180,2013-03-29 05:53:00
1:53 AM,54.0,45.0,72,30.13,10.0,South,5.8,-,N/A,,Scattered Clouds,180,2013-03-29 06:53:00
2:53 AM,55.0,46.9,74,30.13,10.0,South,6.9,-,N/A,,Overcast,180,2013-03-29 07:53:00
3:53 AM,55.9,50.0,80,30.12,10.0,ENE,10.4,-,0.00,Rain,Light Rain,60,2013-03-29 08:53:00
4:53 AM,53.1,51.1,93,30.12,10.0,ENE,9.2,-,0.06,Rain,Light Rain,70,2013-03-29 09:53:00
5:53 AM,52.0,51.1,97,30.12,9.0,East,8.1,-,0.01,Rain,Light Rain,100,2013-03-29 10:53:00
6:36 AM,51.8,51.8,100,30.17,2.5,NE,10.4,-,0.09,Rain,Heavy Rain,40,2013-03-29 11:36:00
6:51 AM,51.8,51.8,100,30.16,8.0,ENE,10.4,19.6,0.12,Rain,Light Rain,70,2013-03-29 11:51:00
6:53 AM,52.0,51.1,97,30.16,9.0,ENE,9.2,19.6,0.12,Rain,Light Rain,70,2013-03-29 11:53:00
7:46 AM,51.8,51.8,100,30.19,2.5,East,6.9,-,0.06,Rain,Rain,90,2013-03-29 12:46:00
7:48 AM,51.8,51.8,100,30.18,3.0,East,9.2,-,0.07,Rain,Rain,90,2013-03-29 12:48:00
7:53 AM,52.0,51.1,97,30.17,2.0,East,9.2,-,0.09,Rain,Heavy Rain,90,2013-03-29 12:53:00
8:06 AM,51.8,51.8,100,30.19,5.0,East,5.8,-,0.02,Rain,Light Rain,100,2013-03-29 13:06:00
8:53 AM,53.1,51.1,93,30.18,5.0,SE,5.8,-,0.04,Rain,Light Rain,140,2013-03-29 13:53:00
9:53 AM,54.0,52.0,93,30.19,10.0,SE,5.8,-,0.01,,Overcast,130,2013-03-29 14:53:00
10:53 AM,55.9,53.1,90,30.19,10.0,SE,5.8,-,N/A,,Overcast,140,2013-03-29 15:53:00
11:53 AM,59.0,53.1,81,30.18,10.0,SE,3.5,-,N/A,,Overcast,140,2013-03-29 16:53:00
12:53 PM,62.1,53.1,72,30.17,10.0,Calm,Calm,-,N/A,,Mostly Cloudy,0,2013-03-29 17:53:00
1:48 PM,64.4,53.6,68,30.15,10.0,NNE,6.9,-,N/A,,Mostly Cloudy,30,2013-03-29 18:48:00
1:53 PM,64.9,53.1,65,30.14,10.0,NNE,4.6,-,N/A,,Mostly Cloudy,30,2013-03-29 18:53:00
2:53 PM,66.0,51.1,59,30.12,10.0,East,6.9,-,N/A,,Mostly Cloudy,100,2013-03-29 19:53:00
2:56 PM,66.2,51.8,60,30.12,10.0,East,9.2,-,N/A,,Mostly Cloudy,90,2013-03-29 19:56:00
3:53 PM,68.0,51.1,55,30.10,10.0,Variable,4.6,-,N/A,,Mostly Cloudy,0,2013-03-29 20:53:00
4:53 PM,66.9,51.1,57,30.10,10.0,ESE,4.6,-,N/A,,Mostly Cloudy,110,2013-03-29 21:53:00
5:53 PM,66.9,50.0,54,30.09,10.0,East,4.6,-,N/A,,Mostly Cloudy,100,2013-03-29 22:53:00
6:53 PM,64.9,50.0,58,30.10,10.0,East,8.1,-,N/A,,Mostly Cloudy,90,2013-03-29 23:53:00
7:53 PM,61.0,50.0,67,30.10,10.0,East,4.6,-,N/A,,Mostly Cloudy,90,2013-03-30 00:53:00
8:53 PM,57.9,48.9,72,30.11,10.0,East,4.6,-,N/A,,Clear,100,2013-03-30 01:53:00
9:53 PM,59.0,50.0,72,30.12,10.0,ESE,5.8,-,N/A,,Overcast,120,2013-03-30 02:53:00
10:53 PM,59.0,48.0,67,30.11,10.0,SE,6.9,-,N/A,,Mostly Cloudy,140,2013-03-30 03:53:00
11:53 PM,59.0,48.0,67,30.11,10.0,SE,6.9,-,N/A,,Overcast,140,2013-03-30 04:53:00